createdAt,value
2023-02-04T00:03:39.879Z,95.06
2023-02-04T00:08:39.818Z,95.06
2023-02-04T00:13:39.772Z,95.99
2023-02-04T00:18:39.692Z,95.99
2023-02-04T00:23:39.627Z,96.51
2023-02-04T00:28:39.559Z,96.92
2023-02-04T00:33:39.499Z,96.72
2023-02-04T00:38:39.438Z,94.75
2023-02-04T00:43:39.381Z,94.34
2023-02-04T00:48:39.313Z,93.41
2023-02-04T00:53:39.258Z,92.58
2023-02-04T00:58:39.190Z,91.55
2023-02-04T01:03:39.130Z,90.20
2023-02-04T01:08:39.063Z,90.20
2023-02-04T01:13:39.016Z,90.20
2023-02-04T01:18:38.936Z,89.79
2023-02-04T01:23:38.881Z,90.10
2023-02-04T01:28:38.821Z,90.41
2023-02-04T01:33:38.758Z,90.52
2023-02-04T01:38:38.694Z,90.72
2023-02-04T01:43:38.631Z,90.93
2023-02-04T01:48:38.570Z,90.72
2023-02-04T01:53:38.504Z,91.24
2023-02-04T01:58:38.441Z,91.24
2023-02-04T02:03:38.380Z,90.72
2023-02-04T02:08:38.310Z,90.35
2023-02-04T02:13:38.252Z,89.83
2023-02-04T02:18:38.186Z,90.04
2023-02-04T02:23:38.128Z,90.35
2023-02-04T02:28:38.078Z,89.94
2023-02-04T02:33:37.997Z,89.83
2023-02-04T02:38:37.949Z,89.42
2023-02-04T02:43:37.884Z,89.52
2023-02-04T02:48:37.813Z,89.32
2023-02-04T02:53:37.745Z,89.83
2023-02-04T02:58:37.696Z,89.52
2023-02-04T03:03:37.632Z,89.94
2023-02-04T03:08:37.549Z,90.35
2023-02-04T03:13:37.499Z,90.56
2023-02-04T03:18:37.441Z,90.60
2023-02-04T03:23:37.380Z,90.97
2023-02-04T03:28:37.313Z,91.22
2023-02-04T03:33:37.268Z,91.11
2023-02-04T03:38:37.215Z,91.32
2023-02-04T03:43:37.137Z,91.32
2023-02-04T03:48:37.075Z,91.11
2023-02-04T03:53:37.016Z,91.53
2023-02-04T03:58:36.950Z,91.32
2023-02-04T04:03:36.888Z,91.22
2023-02-04T04:08:36.817Z,91.11
2023-02-04T04:13:36.764Z,91.11
2023-02-04T04:18:36.699Z,91.74
2023-02-04T04:23:36.643Z,94.26
2023-02-04T04:28:36.560Z,97.83
2023-02-04T04:33:36.520Z,99.43
2023-02-04T04:38:36.442Z,99.99
2023-02-04T04:43:36.402Z,99.99
2023-02-04T04:48:36.340Z,99.99
2023-02-04T04:53:36.289Z,99.99
2023-02-04T04:58:36.237Z,99.99
2023-02-04T05:03:36.181Z,99.52
2023-02-04T05:08:36.122Z,98.58
2023-02-04T05:13:36.079Z,98.17
2023-02-04T05:18:36.015Z,98.79
2023-02-04T05:23:35.967Z,99.04
2023-02-04T05:28:35.924Z,98.42
2023-02-04T05:33:35.856Z,97.43
2023-02-04T05:38:35.796Z,95.98
2023-02-04T05:43:35.747Z,95.50
2023-02-04T05:48:35.682Z,94.67
2023-02-04T05:53:35.641Z,93.22
2023-02-04T05:58:35.576Z,93.78
2023-02-04T06:03:35.601Z,93.99
2023-02-04T06:08:35.463Z,94.65
2023-02-04T06:13:35.401Z,94.65
2023-02-04T06:18:35.341Z,94.65
2023-02-04T06:23:35.277Z,93.66
2023-02-04T06:28:35.221Z,93.35
2023-02-04T06:33:35.167Z,93.97
2023-02-04T06:38:35.090Z,93.76
2023-02-04T06:43:35.046Z,94.07
2023-02-04T06:48:34.962Z,94.03
2023-02-04T06:53:34.910Z,94.13
2023-02-04T06:58:34.841Z,94.07
2023-02-04T07:03:34.787Z,93.66
2023-02-04T07:08:34.736Z,93.35
2023-02-04T07:13:34.665Z,93.14
2023-02-04T07:18:34.617Z,92.36
2023-02-04T07:23:34.542Z,91.74
2023-02-04T07:28:34.488Z,91.27
2023-02-04T07:33:34.421Z,91.27
2023-02-04T07:38:34.361Z,91.47
2023-02-04T07:43:34.297Z,91.47
2023-02-04T07:48:34.248Z,91.68
2023-02-04T07:53:34.166Z,91.43
2023-02-04T07:58:34.112Z,90.29
2023-02-04T08:03:34.041Z,90.81
2023-02-04T08:08:33.987Z,89.83
2023-02-04T08:13:33.916Z,89.42
2023-02-04T08:18:33.865Z,89.21
2023-02-04T08:23:33.803Z,89.17
2023-02-04T08:28:33.742Z,88.85
2023-02-04T08:33:33.672Z,88.85
2023-02-04T08:38:33.614Z,87.68
2023-02-04T08:43:33.550Z,85.19
2023-02-04T08:48:33.516Z,85.56
2023-02-04T08:53:33.462Z,84.94
2023-02-04T08:58:33.415Z,85.46
2023-02-04T09:03:33.370Z,85.46
2023-02-04T09:08:33.311Z,83.80
2023-02-04T09:13:33.244Z,84.00
2023-02-04T09:18:33.203Z,81.37
2023-02-04T09:23:33.138Z,81.37
2023-02-04T09:28:33.084Z,81.20
2023-02-04T09:33:33.029Z,80.33
2023-02-04T09:38:32.981Z,80.44
2023-02-04T09:43:32.922Z,79.68
2023-02-04T09:48:32.915Z,78.96
2023-02-04T09:53:32.823Z,78.64
2023-02-04T09:58:32.759Z,77.88
2023-02-04T10:03:32.765Z,77.01
2023-02-04T10:08:32.633Z,78.16
2023-02-04T10:13:32.583Z,78.36
2023-02-04T10:18:32.515Z,77.05
2023-02-04T10:23:32.462Z,76.98
2023-02-04T10:28:32.407Z,75.67
2023-02-04T10:33:32.341Z,76.50
2023-02-04T10:38:32.306Z,75.57
2023-02-04T10:43:32.245Z,74.26
2023-02-04T10:48:32.214Z,74.46
2023-02-04T10:53:32.146Z,74.26
2023-02-04T10:58:32.085Z,74.98
2023-02-04T11:03:32.071Z,73.94
2023-02-04T11:08:31.983Z,74.46
2023-02-04T11:13:31.929Z,74.77
2023-02-04T11:18:31.879Z,74.67
2023-02-04T11:23:31.807Z,74.57
2023-02-04T11:28:31.765Z,73.84
2023-02-04T11:33:31.697Z,73.39
2023-02-04T11:38:31.645Z,71.80
2023-02-04T11:43:31.583Z,72.29
2023-02-04T11:48:31.532Z,71.04
2023-02-04T11:53:31.470Z,70.73
2023-02-04T11:58:31.439Z,71.46
2023-02-04T12:03:31.425Z,69.49
2023-02-04T12:08:31.315Z,69.70
2023-02-04T12:13:31.273Z,68.74
2023-02-04T12:18:31.213Z,68.32
2023-02-04T12:23:31.155Z,68.29
2023-02-04T12:28:31.107Z,67.77
2023-02-04T12:33:31.042Z,70.50
2023-02-04T12:38:30.972Z,66.03
2023-02-04T12:43:30.924Z,66.06
2023-02-04T12:48:30.909Z,67.19
2023-02-04T12:53:30.780Z,65.12
2023-02-04T12:58:30.722Z,65.33
2023-02-04T13:03:30.661Z,62.75
2023-02-04T13:08:30.604Z,64.06
2023-02-04T13:13:30.539Z,63.65
2023-02-04T13:18:30.475Z,63.21
2023-02-04T13:23:30.413Z,61.58
2023-02-04T13:28:30.342Z,62.10
2023-02-04T13:33:30.281Z,63.89
2023-02-04T13:38:30.224Z,65.54
2023-02-04T13:43:30.155Z,67.71
2023-02-04T13:48:30.096Z,69.29
2023-02-04T13:53:30.037Z,72.47
2023-02-04T13:58:29.986Z,67.16
2023-02-04T14:03:29.899Z,65.64
2023-02-04T14:08:29.860Z,67.71
2023-02-04T14:13:29.777Z,64.84
2023-02-04T14:18:29.723Z,67.05
2023-02-04T14:23:29.663Z,69.74
2023-02-04T14:28:29.618Z,65.70
2023-02-04T14:33:29.535Z,65.39
2023-02-04T14:38:29.484Z,66.05
2023-02-04T14:43:29.414Z,67.70
2023-02-04T14:48:29.379Z,67.52
2023-02-04T14:53:29.307Z,67.83
2023-02-04T14:58:29.257Z,71.28
2023-02-04T15:03:29.200Z,72.53
2023-02-04T15:08:29.156Z,73.70
2023-02-04T15:13:29.098Z,74.01
2023-02-04T15:18:29.041Z,74.63
2023-02-04T15:23:28.991Z,75.40
2023-02-04T15:28:29.012Z,75.92
2023-02-04T15:33:28.864Z,75.81
2023-02-04T15:38:28.822Z,75.74
2023-02-04T15:43:28.752Z,73.05
2023-02-04T15:48:28.716Z,71.56
2023-02-04T15:53:28.644Z,70.87
2023-02-04T15:58:28.596Z,71.18
2023-02-04T16:03:28.530Z,70.56
2023-02-04T16:08:28.501Z,70.76
2023-02-04T16:13:28.432Z,70.97
2023-02-04T16:18:28.374Z,71.39
2023-02-04T16:23:28.382Z,71.70
2023-02-04T16:28:28.247Z,71.94
2023-02-04T16:33:28.202Z,72.45
2023-02-04T16:38:28.134Z,72.77
2023-02-04T16:43:28.069Z,73.11
2023-02-04T16:48:28.017Z,73.22
2023-02-04T16:53:27.951Z,73.35
2023-02-04T16:58:27.891Z,73.77
2023-02-04T17:03:27.822Z,74.29
2023-02-04T17:08:27.776Z,75.78
2023-02-04T17:13:27.715Z,76.72
2023-02-04T17:18:27.657Z,76.12
2023-02-04T17:23:27.583Z,76.85
2023-02-04T17:28:27.543Z,78.31
2023-02-04T17:33:27.495Z,77.83
2023-02-04T17:38:28.174Z,77.65
2023-02-04T17:43:27.352Z,77.79
2023-02-04T17:48:27.291Z,77.86
2023-02-04T17:53:27.229Z,78.52
2023-02-04T17:58:27.181Z,80.19
2023-02-04T18:03:27.111Z,80.12
2023-02-04T18:08:27.051Z,80.02
2023-02-04T18:13:26.988Z,80.99
2023-02-04T18:18:26.937Z,81.02
2023-02-04T18:23:26.866Z,80.92
2023-02-04T18:28:26.870Z,81.48
2023-02-04T18:33:26.874Z,84.19
2023-02-04T18:38:26.809Z,86.77
2023-02-04T18:43:26.614Z,88.34
2023-02-04T18:48:26.560Z,89.01
2023-02-04T18:53:26.549Z,89.58
2023-02-04T18:58:26.439Z,89.99
2023-02-04T19:03:26.379Z,90.34
2023-02-04T19:08:26.333Z,91.02
2023-02-04T19:13:26.254Z,91.89
2023-02-04T19:18:26.192Z,92.63
2023-02-04T19:23:26.130Z,93.19
2023-02-04T19:28:26.179Z,93.71
2023-02-04T19:33:26.003Z,94.38
2023-02-04T19:38:25.955Z,94.74
2023-02-04T19:43:25.890Z,95.27
2023-02-04T19:48:25.849Z,95.79
2023-02-04T19:53:25.783Z,96.11
2023-02-04T19:58:25.722Z,96.99
2023-02-04T20:03:25.682Z,97.66
2023-02-04T20:08:25.601Z,98.19
2023-02-04T20:13:25.538Z,97.66
2023-02-04T20:18:25.501Z,97.60
2023-02-04T20:23:25.427Z,97.81
2023-02-04T20:28:25.360Z,97.96
2023-02-04T20:33:25.293Z,97.54
2023-02-04T20:38:25.248Z,97.27
2023-02-04T20:43:25.199Z,98.53
2023-02-04T20:48:25.125Z,99.41
2023-02-04T20:53:25.060Z,99.63
2023-02-04T20:58:24.997Z,99.99
2023-02-04T21:03:24.944Z,99.99
2023-02-04T21:08:24.974Z,99.99
2023-02-04T21:13:24.822Z,99.99
2023-02-04T21:18:24.770Z,99.99
2023-02-04T21:23:24.708Z,99.99
2023-02-04T21:28:24.645Z,99.99
2023-02-04T21:33:24.582Z,99.99
2023-02-04T21:38:24.530Z,99.99
2023-02-04T21:43:24.468Z,99.99
2023-02-04T21:48:24.424Z,99.99
2023-02-04T21:53:24.356Z,99.99
2023-02-04T21:58:24.293Z,99.99
2023-02-04T22:03:24.258Z,99.99
2023-02-04T22:08:24.182Z,99.99
2023-02-04T22:13:24.117Z,99.99
2023-02-04T22:18:24.054Z,99.99
2023-02-04T22:23:24.017Z,99.99
2023-02-04T22:28:23.948Z,99.99
2023-02-04T22:33:23.875Z,99.99
2023-02-04T22:38:23.834Z,99.99
2023-02-04T22:43:23.759Z,99.99
2023-02-04T22:48:23.698Z,99.99
2023-02-04T22:53:23.640Z,99.99
2023-02-04T22:58:23.608Z,99.99
2023-02-04T23:03:23.516Z,99.99
2023-02-04T23:08:23.462Z,99.99
2023-02-04T23:13:23.436Z,99.99
2023-02-04T23:18:23.342Z,99.99
2023-02-04T23:23:23.283Z,99.99
2023-02-04T23:28:23.215Z,99.99
2023-02-04T23:33:23.248Z,99.99
2023-02-04T23:38:23.098Z,99.99
2023-02-04T23:43:23.047Z,99.99
2023-02-04T23:48:22.980Z,99.99
2023-02-04T23:53:22.930Z,99.99
2023-02-04T23:58:22.879Z,99.99
